Time;durP1;ratioP1;P1;durP2;ratioP2;P2;SDS_P1;SDS_P2;PMS_P1;PMS_P2;Temp;Humidity;BMP_temperature;BMP_pressure;BME280_temperature;BME280_humidity;BME280_pressure;Samples;Min_cycle;Max_cycle;Signal;HPM_P1;HPM_P2
2024/03/13 00:02:11;;;;;;;;;;;;;;;;;;4969579;28;19974;-74
2024/03/13 00:04:43;;;;;;;;;;;;;;;;;;4970213;28;19937;-74
2024/03/13 00:07:11;;;;;;;;;;;;;;;;;;4970239;28;19930;-74
2024/03/13 00:09:45;;;;;;;;;;;;;;;;;;4970487;28;20009;-74
2024/03/13 00:12:12;;;;;;;;;;;;;;;;;;4970654;28;20091;-75
2024/03/13 00:14:39;;;;;;;;;;;;;;;;;;4967474;28;19970;-74
2024/03/13 00:17:06;;;;;;;;;;;;;;;;;;4970057;28;20012;-73
2024/03/13 00:19:34;;;;;;;;;;;;;;;;;;4970273;28;19934;-74
2024/03/13 00:22:02;;;;;;;;;;;;;;;;;;4970421;28;20205;-73
2024/03/13 00:24:29;;;;;;;;;;;;;;;;;;4969008;28;20397;-74
2024/03/13 00:26:57;;;;;;;;;;;;;;;;;;4967681;28;19930;-74
2024/03/13 00:29:25;;;;;;;;;;;;;;;;;;4969877;28;19930;-74
2024/03/13 00:31:52;;;;;;;;;;;;;;;;;;4969893;28;20063;-74
2024/03/13 00:34:20;;;;;;;;;;;;;;;;;;4969475;28;19937;-73
2024/03/13 00:36:47;;;;;;;;;;;;;;;;;;4969437;28;19935;-74
2024/03/13 00:39:14;;;;;;;;;;;;;;;;;;4973105;28;20374;-74
2024/03/13 00:41:41;;;;;;;;;;;;;;;;;;4969291;28;19926;-73
2024/03/13 00:44:09;;;;;;;;;;;;;;;;;;4969058;28;19934;-74
2024/03/13 00:46:36;;;;;;;;;;;;;;;;;;4968170;28;20028;-74
2024/03/13 00:49:03;;;;;;;;;;;;;;;;;;4968458;28;20401;-74
2024/03/13 00:51:31;;;;;;;;;;;;;;;;;;4969316;28;19973;-74
2024/03/13 00:54:04;;;;;;;;;;;;;;;;;;4969397;28;19930;-73
2024/03/13 00:56:31;;;;;;;;;;;;;;;;;;4969619;28;20352;-74
2024/03/13 00:58:59;;;;;;;;;;;;;;;;;;4969391;28;19964;-74
2024/03/13 01:01:26;;;;;;;;;;;;;;;;;;4968992;28;20243;-74
2024/03/13 01:03:57;;;;;;;;;;;;;;;;;;4968645;28;19974;-74
2024/03/13 01:06:26;;;;;;;;;;;;;;;;;;4969319;28;19930;-74
2024/03/13 01:08:53;;;;;;;;;;;;;;;;;;4969517;28;19977;-74
2024/03/13 01:11:21;;;;;;;;;;;;;;;;;;4969149;28;19937;-74
2024/03/13 01:13:49;;;;;;;;;;;;;;;;;;4968920;28;19934;-75
2024/03/13 01:16:17;;;;;;;;;;;;;;;;;;4957204;28;19930;-74
2024/03/13 01:18:44;;;;;;;;;;;;;;;;;;4968923;28;19976;-75
2024/03/13 01:21:11;;;;;;;;;;;;;;;;;;4964418;28;20359;-74
2024/03/13 01:23:38;;;;;;;;;;;;;;;;;;4966894;28;19939;-74
2024/03/13 01:26:05;;;;;;;;;;;;;;;;;;4969292;28;19937;-74
2024/03/13 01:28:32;;;;;;;;;;;;;;;;;;4968767;28;20393;-74
2024/03/13 01:31:00;;;;;;;;;;;;;;;;;;4968940;28;19979;-73
2024/03/13 01:33:28;;;;;;;;;;;;;;;;;;4969564;28;19934;-75
2024/03/13 01:35:56;;;;;;;;;;;;;;;;;;4970208;28;20009;-74
2024/03/13 01:38:22;;;;;;;;;;;;;;;;;;4966900;28;20407;-75
2024/03/13 01:54:53;;;;;;;;;;;;;;;;;;4970482;28;20383;-73
2024/03/13 01:57:28;;;;;;;;;;;;;;;;;;4963310;28;19934;-73
2024/03/13 02:02:36;;;;;;;;;;;;;;;;;;4970161;28;20013;-74
2024/03/13 02:05:03;;;;;;;;;;;;;;;;;;4971440;28;19995;-74
2024/03/13 02:07:29;;;;;;;;;;;;;;;;;;4971112;28;19938;-74
2024/03/13 02:09:58;;;;;;;;;;;;;;;;;;4971639;28;19930;-73
2024/03/13 02:12:25;;;;;;;;;;;;;;;;;;4970228;28;19972;-74
2024/03/13 02:14:52;;;;;;;;;;;;;;;;;;4971174;28;19930;-73
2024/03/13 02:17:19;;;;;;;;;;;;;;;;;;4970706;28;19930;-74
2024/03/13 02:19:46;;;;;;;;;;;;;;;;;;4970688;28;20014;-74
2024/03/13 02:22:13;;;;;;;;;;;;;;;;;;4969962;28;19988;-74
2024/03/13 02:24:40;;;;;;;;;;;;;;;;;;4970248;28;20422;-73
2024/03/13 02:27:07;;;;;;;;;;;;;;;;;;4970916;28;20384;-73
2024/03/13 02:29:34;;;;;;;;;;;;;;;;;;4970055;28;19969;-73
2024/03/13 02:32:01;;;;;;;;;;;;;;;;;;4971430;28;19962;-72
2024/03/13 02:34:30;;;;;;;;;;;;;;;;;;4971101;28;19934;-73
2024/03/13 02:36:57;;;;;;;;;;;;;;;;;;4970994;28;20049;-72
2024/03/13 02:39:24;;;;;;;;;;;;;;;;;;4963792;28;20013;-73
2024/03/13 02:41:52;;;;;;;;;;;;;;;;;;4971260;28;20017;-73
2024/03/13 02:44:19;;;;;;;;;;;;;;;;;;4970897;28;19934;-73
2024/03/13 02:46:45;;;;;;;;;;;;;;;;;;4968122;28;20241;-74
2024/03/13 02:49:15;;;;;;;;;;;;;;;;;;4970752;28;19930;-73
2024/03/13 02:51:42;;;;;;;;;;;;;;;;;;4968744;28;19953;-73
2024/03/13 02:54:09;;;;;;;;;;;;;;;;;;4970475;28;19984;-73
2024/03/13 02:56:36;;;;;;;;;;;;;;;;;;4970719;28;19930;-73
2024/03/13 02:59:03;;;;;;;;;;;;;;;;;;4970857;28;19983;-74
2024/03/13 03:01:30;;;;;;;;;;;;;;;;;;4970698;28;19983;-73
2024/03/13 03:03:58;;;;;;;;;;;;;;;;;;4970720;28;19938;-74
2024/03/13 03:06:25;;;;;;;;;;;;;;;;;;4971391;28;19980;-74
2024/03/13 03:08:52;;;;;;;;;;;;;;;;;;4970946;28;19930;-74
2024/03/13 03:11:20;;;;;;;;;;;;;;;;;;4970950;28;19934;-74
2024/03/13 03:13:47;;;;;;;;;;;;;;;;;;4970616;28;19983;-73
2024/03/13 03:16:14;;;;;;;;;;;;;;;;;;4970950;28;20034;-74
2024/03/13 03:18:43;;;;;;;;;;;;;;;;;;4970500;28;19930;-73
2024/03/13 03:21:10;;;;;;;;;;;;;;;;;;4970296;28;19926;-75
2024/03/13 03:23:38;;;;;;;;;;;;;;;;;;4970323;28;20008;-74
2024/03/13 03:26:05;;;;;;;;;;;;;;;;;;4970293;28;20301;-74
2024/03/13 03:28:32;;;;;;;;;;;;;;;;;;4970813;28;20406;-73
2024/03/13 03:31:04;;;;;;;;;;;;;;;;;;4971195;28;19934;-73
2024/03/13 03:33:31;;;;;;;;;;;;;;;;;;4971162;28;19941;-74
2024/03/13 03:35:58;;;;;;;;;;;;;;;;;;4965067;28;20009;-75
2024/03/13 03:38:28;;;;;;;;;;;;;;;;;;4962592;28;19930;-75
2024/03/13 03:40:55;;;;;;;;;;;;;;;;;;4970786;28;20474;-74
2024/03/13 03:43:22;;;;;;;;;;;;;;;;;;4970994;28;19977;-73
2024/03/13 03:45:49;;;;;;;;;;;;;;;;;;4970278;28;20011;-74
2024/03/13 03:48:16;;;;;;;;;;;;;;;;;;4970897;28;20769;-75
2024/03/13 03:50:43;;;;;;;;;;;;;;;;;;4970640;28;19930;-75
2024/03/13 03:53:10;;;;;;;;;;;;;;;;;;4970069;28;19930;-76
2024/03/13 03:55:37;;;;;;;;;;;;;;;;;;4969266;28;19970;-75
2024/03/13 03:58:06;;;;;;;;;;;;;;;;;;4968854;28;19930;-75
2024/03/13 04:00:35;;;;;;;;;;;;;;;;;;4969993;28;20335;-75
2024/03/13 04:03:02;;;;;;;;;;;;;;;;;;4969962;28;20376;-76
2024/03/13 04:05:29;;;;;;;;;;;;;;;;;;4969901;28;19933;-75
2024/03/13 04:07:58;;;;;;;;;;;;;;;;;;4970211;28;19933;-75
2024/03/13 04:10:25;;;;;;;;;;;;;;;;;;4969727;28;19930;-75
2024/03/13 04:12:52;;;;;;;;;;;;;;;;;;4969167;28;20003;-73
2024/03/13 04:15:22;;;;;;;;;;;;;;;;;;4970164;28;19930;-76
2024/03/13 04:17:50;;;;;;;;;;;;;;;;;;4969282;28;20400;-76
2024/03/13 04:20:18;;;;;;;;;;;;;;;;;;4968021;28;21300;-75
2024/03/13 04:22:46;;;;;;;;;;;;;;;;;;4969518;28;19930;-75
2024/03/13 04:25:13;;;;;;;;;;;;;;;;;;4967517;28;19930;-75
2024/03/13 04:27:40;;;;;;;;;;;;;;;;;;4967387;28;20435;-76
2024/03/13 04:30:07;;;;;;;;;;;;;;;;;;4963923;28;19930;-75
2024/03/13 04:32:35;;;;;;;;;;;;;;;;;;4969115;28;19930;-76
2024/03/13 04:35:02;;;;;;;;;;;;;;;;;;4968972;28;20301;-76
2024/03/13 04:37:29;;;;;;;;;;;;;;;;;;4969706;28;20282;-76
2024/03/13 04:39:58;;;;;;;;;;;;;;;;;;4970008;28;19926;-77
2024/03/13 04:42:25;;;;;;;;;;;;;;;;;;4969588;28;19952;-76
2024/03/13 04:44:54;;;;;;;;;;;;;;;;;;4969373;28;19991;-76
2024/03/13 04:47:21;;;;;;;;;;;;;;;;;;4970199;28;19930;-76
2024/03/13 04:49:48;;;;;;;;;;;;;;;;;;4969858;28;20034;-76
2024/03/13 04:52:15;;;;;;;;;;;;;;;;;;4969513;28;19934;-76
2024/03/13 04:54:42;;;;;;;;;;;;;;;;;;4973809;28;20351;-73
2024/03/13 04:57:09;;;;;;;;;;;;;;;;;;4969383;28;20825;-76
2024/03/13 04:59:37;;;;;;;;;;;;;;;;;;4969537;28;20389;-76
2024/03/13 05:02:04;;;;;;;;;;;;;;;;;;4966260;28;19934;-74
2024/03/13 05:04:31;;;;;;;;;;;;;;;;;;4966492;28;19979;-75
2024/03/13 05:07:02;;;;;;;;;;;;;;;;;;4969768;28;19934;-76
2024/03/13 05:09:29;;;;;;;;;;;;;;;;;;4971255;28;19936;-76
2024/03/13 05:11:56;;;;;;;;;;;;;;;;;;4972580;28;20340;-74
2024/03/13 05:14:23;;;;;;;;;;;;;;;;;;4972660;28;19961;-74
2024/03/13 05:16:50;;;;;;;;;;;;;;;;;;4972436;28;19930;-74
2024/03/13 05:19:18;;;;;;;;;;;;;;;;;;4970348;28;20028;-74
2024/03/13 05:21:45;;;;;;;;;;;;;;;;;;4971884;28;19934;-76
2024/03/13 05:24:13;;;;;;;;;;;;;;;;;;4972160;28;19930;-76
2024/03/13 05:26:41;;;;;;;;;;;;;;;;;;4972468;28;19930;-75
2024/03/13 05:29:09;;;;;;;;;;;;;;;;;;4971725;28;19930;-75
2024/03/13 05:31:36;;;;;;;;;;;;;;;;;;4972757;28;19930;-75
2024/03/13 05:34:04;;;;;;;;;;;;;;;;;;4970471;28;19934;-75
2024/03/13 05:36:32;;;;;;;;;;;;;;;;;;4973608;28;19988;-83
2024/03/13 05:38:59;;;;;;;;;;;;;;;;;;4980173;28;19926;-76
2024/03/13 05:41:26;;;;;;;;;;;;;;;;;;4972050;28;19930;-75
2024/03/13 05:43:53;;;;;;;;;;;;;;;;;;4967943;28;20003;-76
2024/03/13 05:46:22;;;;;;;;;;;;;;;;;;4972264;28;19933;-77
2024/03/13 05:48:49;;;;;;;;;;;;;;;;;;4970862;28;20028;-75
2024/03/13 05:51:16;;;;;;;;;;;;;;;;;;4969546;28;19930;-75
2024/03/13 05:53:44;;;;;;;;;;;;;;;;;;4968003;28;19934;-77
2024/03/13 05:56:11;;;;;;;;;;;;;;;;;;4967205;28;19934;-75
2024/03/13 05:58:41;;;;;;;;;;;;;;;;;;4968595;28;19931;-76
2024/03/13 06:01:10;;;;;;;;;;;;;;;;;;4969812;28;19983;-76
2024/03/13 06:03:37;;;;;;;;;;;;;;;;;;4970987;28;19927;-75
2024/03/13 06:06:04;;;;;;;;;;;;;;;;;;4971137;28;19949;-75
2024/03/13 06:08:33;;;;;;;;;;;;;;;;;;4970883;28;20367;-76
2024/03/13 06:11:00;;;;;;;;;;;;;;;;;;4968566;28;19980;-75
2024/03/13 06:13:27;;;;;;;;;;;;;;;;;;4969495;28;20331;-76
2024/03/13 06:15:54;;;;;;;;;;;;;;;;;;4970567;28;19930;-76
2024/03/13 06:18:21;;;;;;;;;;;;;;;;;;4962819;28;19934;-76
2024/03/13 06:20:48;;;;;;;;;;;;;;;;;;4970495;28;20403;-76
2024/03/13 06:23:16;;;;;;;;;;;;;;;;;;4971182;28;20454;-76
2024/03/13 06:25:45;;;;;;;;;;;;;;;;;;4967880;28;19930;-75
2024/03/13 06:30:57;;;;;;;;;;;;;;;;;;4962964;28;19980;-74
2024/03/13 06:33:24;;;;;;;;;;;;;;;;;;4965784;28;19930;-75
2024/03/13 06:35:51;;;;;;;;;;;;;;;;;;4968267;28;20397;-75
2024/03/13 06:38:18;;;;;;;;;;;;;;;;;;4968570;28;19930;-75
2024/03/13 06:40:45;;;;;;;;;;;;;;;;;;4967147;28;20027;-76
2024/03/13 06:43:14;;;;;;;;;;;;;;;;;;5000728;28;20429;-77
2024/03/13 06:45:45;;;;;;;;;;;;;;;;;;4967152;28;20020;-76
2024/03/13 06:48:13;;;;;;;;;;;;;;;;;;4961977;28;19934;-76
2024/03/13 06:50:41;;;;;;;;;;;;;;;;;;4961733;28;19930;-77
2024/03/13 06:53:08;;;;;;;;;;;;;;;;;;4963244;28;20281;-73
2024/03/13 06:55:35;;;;;;;;;;;;;;;;;;4968259;28;19984;-76
2024/03/13 06:58:02;;;;;;;;;;;;;;;;;;4968445;28;19930;-75
2024/03/13 07:00:32;;;;;;;;;;;;;;;;;;4965935;28;19934;-76
2024/03/13 07:03:01;;;;;;;;;;;;;;;;;;4966871;28;19941;-73
2024/03/13 07:05:28;;;;;;;;;;;;;;;;;;4960924;28;19937;-77
2024/03/13 07:07:55;;;;;;;;;;;;;;;;;;4965917;28;20400;-77
2024/03/13 07:10:22;;;;;;;;;;;;;;;;;;4958606;28;19930;-76
2024/03/13 07:12:49;;;;;;;;;;;;;;;;;;4963140;28;20013;-76
2024/03/13 07:15:16;;;;;;;;;;;;;;;;;;4966334;28;20415;-75
2024/03/13 07:17:44;;;;;;;;;;;;;;;;;;4967387;28;19937;-78
2024/03/13 07:20:11;;;;;;;;;;;;;;;;;;4958458;28;20312;-75
2024/03/13 07:22:38;;;;;;;;;;;;;;;;;;4965268;28;19930;-74
2024/03/13 07:25:08;;;;;;;;;;;;;;;;;;4966934;28;19930;-73
2024/03/13 07:27:35;;;;;;;;;;;;;;;;;;4958408;28;19931;-73
2024/03/13 07:30:04;;;;;;;;;;;;;;;;;;4959888;28;19973;-75
2024/03/13 07:32:31;;;;;;;;;;;;;;;;;;4956844;28;20420;-74
2024/03/13 07:34:59;;;;;;;;;;;;;;;;;;4959999;28;20024;-74
2024/03/13 07:37:26;;;;;;;;;;;;;;;;;;4961047;28;20462;-74
2024/03/13 07:39:53;;;;;;;;;;;;;;;;;;4964712;28;19969;-74
2024/03/13 07:42:20;;;;;;;;;;;;;;;;;;4957015;28;20511;-74
2024/03/13 07:44:47;;;;;;;;;;;;;;;;;;4964736;28;19930;-75
2024/03/13 07:47:14;;;;;;;;;;;;;;;;;;4951955;28;20378;-75
2024/03/13 07:49:43;;;;;;;;;;;;;;;;;;4958035;28;19987;-74
2024/03/13 07:52:12;;;;;;;;;;;;;;;;;;4966483;28;19930;-72
2024/03/13 07:54:39;;;;;;;;;;;;;;;;;;4964933;28;19969;-71
2024/03/13 07:57:08;;;;;;;;;;;;;;;;;;4965858;28;19930;-71
2024/03/13 07:59:35;;;;;;;;;;;;;;;;;;4965247;28;19936;-71
2024/03/13 08:02:02;;;;;;;;;;;;;;;;;;4964866;28;20013;-71
2024/03/13 08:04:29;;;;;;;;;;;;;;;;;;4961361;28;19977;-72
2024/03/13 08:06:58;;;;;;;;;;;;;;;;;;4954369;28;19930;-72
2024/03/13 08:09:28;;;;;;;;;;;;;;;;;;4981458;28;19972;-72
2024/03/13 08:11:55;;;;;;;;;;;;;;;;;;4961216;28;20032;-73
2024/03/13 08:14:22;;;;;;;;;;;;;;;;;;4963227;28;19945;-73
2024/03/13 08:16:49;;;;;;;;;;;;;;;;;;4964037;28;20312;-72
2024/03/13 08:19:16;;;;;;;;;;;;;;;;;;4958661;28;19930;-72
2024/03/13 08:21:43;;;;;;;;;;;;;;;;;;4961477;28;20009;-72
2024/03/13 08:24:10;;;;;;;;;;;;;;;;;;4964168;28;20401;-76
2024/03/13 08:26:37;;;;;;;;;;;;;;;;;;4963326;28;19930;-73
2024/03/13 08:29:04;;;;;;;;;;;;;;;;;;4958835;28;20415;-71
2024/03/13 08:31:32;;;;;;;;;;;;;;;;;;4960372;28;19934;-74
2024/03/13 08:34:00;;;;;;;;;;;;;;;;;;4958055;28;19934;-71
2024/03/13 08:36:27;;;;;;;;;;;;;;;;;;4963274;28;20428;-71
2024/03/13 08:38:54;;;;;;;;;;;;;;;;;;4962445;28;19983;-72
2024/03/13 08:41:22;;;;;;;;;;;;;;;;;;4964881;28;20035;-72
2024/03/13 08:43:49;;;;;;;;;;;;;;;;;;4964556;28;19984;-72
2024/03/13 08:46:18;;;;;;;;;;;;;;;;;;4967873;28;20358;-72
2024/03/13 08:48:45;;;;;;;;;;;;;;;;;;4959075;28;20385;-72
2024/03/13 08:51:12;;;;;;;;;;;;;;;;;;4967648;28;19973;-73
2024/03/13 08:53:39;;;;;;;;;;;;;;;;;;4969100;28;20409;-72
2024/03/13 08:56:07;;;;;;;;;;;;;;;;;;4965968;28;19980;-73
2024/03/13 08:58:34;;;;;;;;;;;;;;;;;;4961357;28;20375;-74
2024/03/13 09:01:01;;;;;;;;;;;;;;;;;;4967143;28;20400;-72
2024/03/13 09:03:28;;;;;;;;;;;;;;;;;;4963863;28;19969;-72
2024/03/13 09:05:57;;;;;;;;;;;;;;;;;;4962474;28;19969;-73
2024/03/13 09:08:24;;;;;;;;;;;;;;;;;;4969316;28;19930;-73
2024/03/13 09:10:52;;;;;;;;;;;;;;;;;;4965861;28;19945;-73
2024/03/13 09:13:19;;;;;;;;;;;;;;;;;;4963210;28;19931;-72
2024/03/13 09:15:46;;;;;;;;;;;;;;;;;;4957766;28;19934;-73
2024/03/13 09:18:13;;;;;;;;;;;;;;;;;;4964889;28;20350;-72
2024/03/13 09:20:40;;;;;;;;;;;;;;;;;;4958089;28;19977;-73
2024/03/13 09:23:09;;;;;;;;;;;;;;;;;;4959796;28;19996;-74
2024/03/13 09:25:36;;;;;;;;;;;;;;;;;;4968002;28;20033;-73
2024/03/13 09:28:03;;;;;;;;;;;;;;;;;;4965426;28;20393;-73
2024/03/13 09:30:30;;;;;;;;;;;;;;;;;;4985952;28;20353;-73
2024/03/13 09:32:59;;;;;;;;;;;;;;;;;;4969269;28;20363;-74
2024/03/13 09:35:26;;;;;;;;;;;;;;;;;;4958998;28;19934;-73
2024/03/13 09:37:53;;;;;;;;;;;;;;;;;;4957940;28;19934;-74
2024/03/13 09:40:20;;;;;;;;;;;;;;;;;;4970550;28;19989;-74
2024/03/13 09:42:47;;;;;;;;;;;;;;;;;;4970994;28;19937;-72
2024/03/13 09:45:16;;;;;;;;;;;;;;;;;;4967543;28;19966;-74
2024/03/13 09:47:43;;;;;;;;;;;;;;;;;;4963891;28;19938;-73
2024/03/13 09:50:11;;;;;;;;;;;;;;;;;;4962708;28;20458;-73
2024/03/13 09:52:38;;;;;;;;;;;;;;;;;;4963602;28;19930;-74
2024/03/13 09:55:05;;;;;;;;;;;;;;;;;;4958329;28;19985;-73
2024/03/13 09:57:33;;;;;;;;;;;;;;;;;;4958290;28;19966;-74
2024/03/13 10:00:01;;;;;;;;;;;;;;;;;;4968367;28;20017;-74
2024/03/13 10:02:28;;;;;;;;;;;;;;;;;;4962341;28;19935;-73
2024/03/13 10:04:55;;;;;;;;;;;;;;;;;;4960072;28;20022;-73
2024/03/13 10:07:22;;;;;;;;;;;;;;;;;;4961996;28;19970;-72
2024/03/13 10:09:49;;;;;;;;;;;;;;;;;;4964803;28;19976;-73
2024/03/13 10:12:19;;;;;;;;;;;;;;;;;;4960797;28;19934;-72
2024/03/13 10:14:46;;;;;;;;;;;;;;;;;;4961832;28;19930;-75
2024/03/13 10:17:13;;;;;;;;;;;;;;;;;;4961946;28;19966;-74
2024/03/13 10:19:40;;;;;;;;;;;;;;;;;;4960614;28;19976;-74
2024/03/13 10:22:07;;;;;;;;;;;;;;;;;;4960304;28;20508;-74
2024/03/13 10:24:34;;;;;;;;;;;;;;;;;;4960614;28;19966;-73
2024/03/13 10:27:02;;;;;;;;;;;;;;;;;;4968341;28;20471;-75
2024/03/13 10:29:29;;;;;;;;;;;;;;;;;;4968632;28;19960;-75
2024/03/13 10:31:58;;;;;;;;;;;;;;;;;;4969752;28;20401;-72
2024/03/13 10:34:27;;;;;;;;;;;;;;;;;;4966292;28;19977;-74
2024/03/13 10:36:54;;;;;;;;;;;;;;;;;;4956108;28;19937;-74
2024/03/13 10:39:21;;;;;;;;;;;;;;;;;;4961871;28;19940;-74
2024/03/13 10:41:48;;;;;;;;;;;;;;;;;;4953808;28;20021;-73
2024/03/13 10:44:15;;;;;;;;;;;;;;;;;;4958869;28;20324;-73
2024/03/13 10:46:42;;;;;;;;;;;;;;;;;;4960541;28;20656;-75
2024/03/13 10:49:09;;;;;;;;;;;;;;;;;;4959424;28;20035;-74
2024/03/13 10:51:37;;;;;;;;;;;;;;;;;;4962065;28;19985;-73
2024/03/13 10:54:04;;;;;;;;;;;;;;;;;;4959275;28;20718;-72
2024/03/13 10:56:31;;;;;;;;;;;;;;;;;;4959408;28;20729;-74
2024/03/13 10:58:58;;;;;;;;;;;;;;;;;;4956624;28;20051;-74
2024/03/13 11:01:25;;;;;;;;;;;;;;;;;;4963753;28;19973;-74
2024/03/13 11:03:52;;;;;;;;;;;;;;;;;;4959337;28;19934;-73
2024/03/13 11:06:19;;;;;;;;;;;;;;;;;;4958788;28;20032;-70
2024/03/13 11:08:46;;;;;;;;;;;;;;;;;;4957699;28;19930;-74
2024/03/13 11:11:13;;;;;;;;;;;;;;;;;;4958144;28;19977;-74
2024/03/13 11:13:42;;;;;;;;;;;;;;;;;;4957858;28;20052;-74
2024/03/13 11:16:09;;;;;;;;;;;;;;;;;;4960719;28;19934;-74
2024/03/13 11:18:36;;;;;;;;;;;;;;;;;;4958571;28;19969;-74
2024/03/13 11:21:03;;;;;;;;;;;;;;;;;;4962105;28;19938;-74
2024/03/13 11:23:30;;;;;;;;;;;;;;;;;;4961508;28;20345;-74
2024/03/13 11:25:57;;;;;;;;;;;;;;;;;;4957837;28;19930;-74
2024/03/13 11:28:24;;;;;;;;;;;;;;;;;;4957813;28;20017;-74
2024/03/13 11:30:52;;;;;;;;;;;;;;;;;;4960749;28;20439;-75
2024/03/13 11:33:19;;;;;;;;;;;;;;;;;;4956632;28;19985;-75
2024/03/13 11:35:47;;;;;;;;;;;;;;;;;;4957777;28;19952;-73
2024/03/13 11:38:14;;;;;;;;;;;;;;;;;;4961193;28;19966;-71
2024/03/13 11:40:42;;;;;;;;;;;;;;;;;;4960494;28;19934;-73
2024/03/13 11:43:10;;;;;;;;;;;;;;;;;;4958303;28;19973;-73
2024/03/13 11:45:37;;;;;;;;;;;;;;;;;;4961463;28;20019;-71
2024/03/13 11:48:04;;;;;;;;;;;;;;;;;;4965219;28;20435;-72
2024/03/13 11:50:32;;;;;;;;;;;;;;;;;;4958027;28;20708;-73
2024/03/13 11:52:59;;;;;;;;;;;;;;;;;;4958702;28;20043;-73
2024/03/13 11:55:26;;;;;;;;;;;;;;;;;;4956407;28;19930;-73
2024/03/13 11:57:53;;;;;;;;;;;;;;;;;;4968401;28;20027;-74
2024/03/13 12:00:21;;;;;;;;;;;;;;;;;;4959999;28;20003;-71
2024/03/13 12:02:48;;;;;;;;;;;;;;;;;;4959877;28;19977;-71
2024/03/13 12:05:15;;;;;;;;;;;;;;;;;;4962329;28;19930;-74
2024/03/13 12:07:43;;;;;;;;;;;;;;;;;;4959570;28;19930;-72
2024/03/13 12:10:11;;;;;;;;;;;;;;;;;;4954103;28;20648;-73
2024/03/13 12:12:39;;;;;;;;;;;;;;;;;;4956466;28;19944;-72
2024/03/13 12:15:07;;;;;;;;;;;;;;;;;;4958442;28;19965;-72
2024/03/13 12:17:34;;;;;;;;;;;;;;;;;;4966314;28;19934;-72
2024/03/13 12:20:03;;;;;;;;;;;;;;;;;;4959607;28;19930;-72
2024/03/13 12:22:30;;;;;;;;;;;;;;;;;;4961652;28;20434;-73
2024/03/13 12:24:57;;;;;;;;;;;;;;;;;;4980794;28;19945;-72
2024/03/13 12:27:25;;;;;;;;;;;;;;;;;;4991186;28;20432;-73
2024/03/13 12:29:52;;;;;;;;;;;;;;;;;;4977819;28;19982;-72
2024/03/13 12:32:19;;;;;;;;;;;;;;;;;;4965259;28;19931;-73
2024/03/13 12:34:46;;;;;;;;;;;;;;;;;;4964005;28;19965;-72
2024/03/13 12:37:13;;;;;;;;;;;;;;;;;;4963968;28;20359;-72
2024/03/13 12:39:40;;;;;;;;;;;;;;;;;;4966999;28;20430;-73
2024/03/13 12:42:08;;;;;;;;;;;;;;;;;;4964252;28;19930;-73
2024/03/13 12:44:35;;;;;;;;;;;;;;;;;;4976250;28;19937;-74
2024/03/13 12:47:03;;;;;;;;;;;;;;;;;;4978654;28;20009;-73
2024/03/13 12:49:30;;;;;;;;;;;;;;;;;;4964240;28;20410;-73
2024/03/13 12:51:58;;;;;;;;;;;;;;;;;;4960822;28;19991;-73
2024/03/13 12:54:25;;;;;;;;;;;;;;;;;;4964669;28;20010;-73
2024/03/13 12:56:52;;;;;;;;;;;;;;;;;;4964069;28;20362;-72
2024/03/13 12:59:19;;;;;;;;;;;;;;;;;;4954381;28;19973;-72
2024/03/13 13:01:46;;;;;;;;;;;;;;;;;;4968418;28;19973;-73
2024/03/13 13:04:14;;;;;;;;;;;;;;;;;;4978752;28;19967;-72
2024/03/13 13:06:42;;;;;;;;;;;;;;;;;;4971298;28;19930;-72
2024/03/13 13:09:09;;;;;;;;;;;;;;;;;;4959859;28;20006;-72
2024/03/13 13:11:36;;;;;;;;;;;;;;;;;;4954337;28;19948;-73
2024/03/13 13:14:03;;;;;;;;;;;;;;;;;;4965951;28;19938;-71
2024/03/13 13:16:30;;;;;;;;;;;;;;;;;;4958523;28;20133;-74
2024/03/13 13:19:00;;;;;;;;;;;;;;;;;;4959435;28;19930;-73
2024/03/13 13:21:28;;;;;;;;;;;;;;;;;;4959367;28;20017;-73
2024/03/13 13:23:56;;;;;;;;;;;;;;;;;;4959582;28;19999;-72
2024/03/13 13:26:23;;;;;;;;;;;;;;;;;;4959801;28;20228;-73
2024/03/13 13:28:50;;;;;;;;;;;;;;;;;;4958564;28;19938;-72
2024/03/13 13:31:17;;;;;;;;;;;;;;;;;;4962789;28;19983;-72
2024/03/13 13:33:45;;;;;;;;;;;;;;;;;;4963295;28;20206;-75
2024/03/13 13:36:12;;;;;;;;;;;;;;;;;;4961056;28;19934;-72
2024/03/13 13:38:39;;;;;;;;;;;;;;;;;;4962833;28;19971;-75
2024/03/13 13:41:06;;;;;;;;;;;;;;;;;;4969666;28;19930;-76
2024/03/13 13:43:33;;;;;;;;;;;;;;;;;;4964189;28;19930;-75
2024/03/13 13:46:01;;;;;;;;;;;;;;;;;;4968519;28;19935;-74
2024/03/13 13:48:28;;;;;;;;;;;;;;;;;;4970173;28;19930;-75
2024/03/13 13:50:55;;;;;;;;;;;;;;;;;;4965455;28;19934;-75
2024/03/13 13:53:22;;;;;;;;;;;;;;;;;;4967581;28;20017;-74
2024/03/13 13:55:49;;;;;;;;;;;;;;;;;;4969609;28;19930;-75
2024/03/13 13:58:16;;;;;;;;;;;;;;;;;;4985821;28;19935;-75
2024/03/13 14:00:43;;;;;;;;;;;;;;;;;;4999298;28;19936;-75
2024/03/13 14:03:10;;;;;;;;;;;;;;;;;;4973476;28;20044;-74
2024/03/13 14:05:37;;;;;;;;;;;;;;;;;;4987718;28;19934;-74
2024/03/13 14:08:06;;;;;;;;;;;;;;;;;;4967837;28;21691;-74
2024/03/13 14:10:33;;;;;;;;;;;;;;;;;;4971484;28;20018;-74
2024/03/13 14:13:02;;;;;;;;;;;;;;;;;;4965772;28;19965;-75
2024/03/13 14:15:29;;;;;;;;;;;;;;;;;;4965580;28;19934;-73
2024/03/13 14:17:57;;;;;;;;;;;;;;;;;;4966897;28;19970;-72
2024/03/13 14:20:24;;;;;;;;;;;;;;;;;;4966220;28;20036;-73
2024/03/13 14:22:52;;;;;;;;;;;;;;;;;;4967464;28;19937;-73
2024/03/13 14:25:19;;;;;;;;;;;;;;;;;;4964470;28;19938;-74
2024/03/13 14:27:47;;;;;;;;;;;;;;;;;;4967969;28;20020;-74
2024/03/13 14:30:15;;;;;;;;;;;;;;;;;;4974101;28;19995;-72
2024/03/13 14:32:42;;;;;;;;;;;;;;;;;;4963371;28;19930;-75
2024/03/13 14:35:11;;;;;;;;;;;;;;;;;;4964403;28;20412;-73
2024/03/13 14:37:38;;;;;;;;;;;;;;;;;;4966734;28;20307;-71
2024/03/13 14:40:10;;;;;;;;;;;;;;;;;;4966981;28;19954;-72
2024/03/13 14:42:38;;;;;;;;;;;;;;;;;;4966955;28;20011;-72
2024/03/13 14:45:05;;;;;;;;;;;;;;;;;;4966452;28;19934;-72
2024/03/13 14:47:32;;;;;;;;;;;;;;;;;;4980650;28;19965;-71
2024/03/13 14:50:00;;;;;;;;;;;;;;;;;;4964703;28;19973;-72
2024/03/13 14:52:27;;;;;;;;;;;;;;;;;;4964526;28;20045;-71
2024/03/13 14:54:54;;;;;;;;;;;;;;;;;;4976142;28;19930;-71
2024/03/13 14:57:23;;;;;;;;;;;;;;;;;;4963873;28;19930;-72
2024/03/13 14:59:50;;;;;;;;;;;;;;;;;;4964771;28;19930;-72
2024/03/13 15:02:18;;;;;;;;;;;;;;;;;;4962673;28;19996;-72
2024/03/13 15:04:45;;;;;;;;;;;;;;;;;;4964530;28;19938;-72
2024/03/13 15:07:13;;;;;;;;;;;;;;;;;;4964774;28;20020;-71
2024/03/13 15:09:40;;;;;;;;;;;;;;;;;;4963405;28;20286;-73
2024/03/13 15:12:09;;;;;;;;;;;;;;;;;;4963470;28;20385;-72
2024/03/13 15:14:37;;;;;;;;;;;;;;;;;;4965421;28;19938;-73
2024/03/13 15:17:08;;;;;;;;;;;;;;;;;;4963198;28;19936;-73
2024/03/13 15:19:36;;;;;;;;;;;;;;;;;;4966532;28;19936;-72
2024/03/13 15:22:04;;;;;;;;;;;;;;;;;;4956901;28;19984;-72
2024/03/13 15:24:31;;;;;;;;;;;;;;;;;;4964474;28;20015;-73
2024/03/13 15:26:58;;;;;;;;;;;;;;;;;;4964318;28;20014;-73
2024/03/13 15:29:26;;;;;;;;;;;;;;;;;;4969895;28;19934;-73
2024/03/13 15:31:53;;;;;;;;;;;;;;;;;;4961659;28;19937;-73
2024/03/13 15:34:20;;;;;;;;;;;;;;;;;;4966307;28;19934;-73
2024/03/13 15:36:47;;;;;;;;;;;;;;;;;;4972372;28;20411;-72
2024/03/13 15:39:14;;;;;;;;;;;;;;;;;;4959390;28;19969;-73
2024/03/13 15:41:43;;;;;;;;;;;;;;;;;;4964715;28;19930;-74
2024/03/13 15:44:12;;;;;;;;;;;;;;;;;;4965141;28;19934;-72
2024/03/13 15:46:39;;;;;;;;;;;;;;;;;;4961691;28;20466;-72
2024/03/13 15:49:06;;;;;;;;;;;;;;;;;;4963090;28;19930;-74
2024/03/13 15:51:33;;;;;;;;;;;;;;;;;;4964678;28;19981;-71
2024/03/13 15:54:00;;;;;;;;;;;;;;;;;;4971716;28;20551;-73
2024/03/13 15:56:27;;;;;;;;;;;;;;;;;;4967014;28;20012;-73
2024/03/13 15:58:54;;;;;;;;;;;;;;;;;;4976173;28;20077;-73
2024/03/13 16:01:21;;;;;;;;;;;;;;;;;;4963656;28;19938;-73
2024/03/13 16:03:49;;;;;;;;;;;;;;;;;;4962126;28;20335;-73
2024/03/13 16:06:16;;;;;;;;;;;;;;;;;;4967320;28;19941;-72
2024/03/13 16:08:43;;;;;;;;;;;;;;;;;;4966087;28;19938;-73
2024/03/13 16:11:10;;;;;;;;;;;;;;;;;;4965672;28;19983;-72
2024/03/13 16:13:37;;;;;;;;;;;;;;;;;;4958017;28;20468;-73
2024/03/13 16:16:04;;;;;;;;;;;;;;;;;;4964075;28;19974;-73
2024/03/13 16:18:31;;;;;;;;;;;;;;;;;;4966365;28;20052;-73
2024/03/13 16:20:58;;;;;;;;;;;;;;;;;;4968819;28;19941;-72
2024/03/13 16:23:25;;;;;;;;;;;;;;;;;;4964936;28;19930;-72
2024/03/13 16:25:52;;;;;;;;;;;;;;;;;;4966262;28;19930;-72
2024/03/13 16:28:20;;;;;;;;;;;;;;;;;;4963884;28;20109;-72
2024/03/13 16:30:47;;;;;;;;;;;;;;;;;;4964977;28;20013;-72
2024/03/13 16:33:14;;;;;;;;;;;;;;;;;;4981754;28;20445;-72
2024/03/13 16:35:41;;;;;;;;;;;;;;;;;;4964846;28;19975;-72
2024/03/13 16:38:08;;;;;;;;;;;;;;;;;;4976570;28;19938;-71
2024/03/13 16:40:35;;;;;;;;;;;;;;;;;;4961981;28;20389;-71
2024/03/13 16:43:03;;;;;;;;;;;;;;;;;;4960795;28;20012;-71
2024/03/13 16:45:30;;;;;;;;;;;;;;;;;;4961275;28;19930;-71
2024/03/13 16:47:57;;;;;;;;;;;;;;;;;;4957542;28;20329;-73
2024/03/13 16:50:24;;;;;;;;;;;;;;;;;;4965714;28;20031;-73
2024/03/13 16:52:51;;;;;;;;;;;;;;;;;;4961974;28;19993;-74
2024/03/13 16:55:18;;;;;;;;;;;;;;;;;;4965404;28;19934;-73
2024/03/13 16:57:47;;;;;;;;;;;;;;;;;;4957154;28;19930;-74
2024/03/13 17:00:15;;;;;;;;;;;;;;;;;;4955206;28;19960;-74
2024/03/13 17:02:42;;;;;;;;;;;;;;;;;;4968512;28;20480;-73
2024/03/13 17:05:09;;;;;;;;;;;;;;;;;;4964679;28;20554;-74
2024/03/13 17:07:36;;;;;;;;;;;;;;;;;;4969142;28;20056;-74